Time;durP1;ratioP1;P1;durP2;ratioP2;P2;SDS_P1;SDS_P2;PMS_P1;PMS_P2;Temp;Humidity;BMP_temperature;BMP_pressure;BME280_temperature;BME280_humidity;BME280_pressure;Samples;Min_cycle;Max_cycle;Signal;HPM_P1;HPM_P2
2022/06/10 11:34:33;;;;;;;16.45;4.43;;;22.60;87.70;;;;;;5069250;28;20428;-54
2022/06/10 11:37:20;;;;;;;18.40;3.95;;;22.40;87.80;;;;;;5069514;28;20762;-56
2022/06/10 11:39:47;;;;;;;15.85;4.72;;;22.30;90.30;;;;;;5069426;28;20115;-55
2022/06/10 11:42:14;;;;;;;18.77;5.22;;;22.30;88.40;;;;;;5070085;28;20048;-52
2022/06/10 11:44:41;;;;;;;15.48;4.05;;;22.30;88.40;;;;;;5068768;28;20037;-54
2022/06/10 11:47:08;;;;;;;14.38;3.78;;;22.30;88.20;;;;;;5069771;28;20037;-49
2022/06/10 11:49:40;;;;;;;15.20;4.28;;;22.40;88.90;;;;;;5068441;28;20519;-50
2022/06/10 11:52:07;;;;;;;15.82;4.35;;;22.40;88.60;;;;;;5068003;28;20098;-54
2022/06/10 11:54:34;;;;;;;17.42;4.13;;;22.50;88.90;;;;;;5069219;28;20063;-53
2022/06/10 11:59:47;;;;;;;15.30;3.63;;;22.60;88.60;;;;;;5054324;28;20091;-57
2022/06/10 12:02:14;;;;;;;12.75;3.80;;;22.70;87.90;;;;;;5056868;28;20488;-57
2022/06/10 12:04:40;;;;;;;15.20;4.10;;;22.80;88.30;;;;;;5056280;28;20052;-53
2022/06/10 12:07:07;;;;;;;13.77;4.05;;;22.80;85.90;;;;;;5069274;28;20045;-57
2022/06/10 12:09:34;;;;;;;16.40;4.30;;;22.90;86.20;;;;;;5069258;28;20044;-55
2022/06/10 12:12:01;;;;;;;12.95;3.90;;;22.80;86.80;;;;;;5069487;28;20045;-53
2022/06/10 12:14:28;;;;;;;13.35;3.90;;;22.80;86.00;;;;;;5069140;28;20036;-53
2022/06/10 12:16:54;;;;;;;13.57;3.63;;;22.80;86.00;;;;;;5069227;28;20041;-55
2022/06/10 12:19:22;;;;;;;14.82;3.95;;;22.90;86.70;;;;;;5069190;28;20047;-51
2022/06/10 12:21:48;;;;;;;15.55;4.13;;;22.90;85.40;;;;;;5069233;28;20522;-53
2022/06/10 12:24:16;;;;;;;15.30;3.80;;;23.00;85.80;;;;;;5069020;28;20055;-53
2022/06/10 12:26:46;;;;;;;17.65;4.53;;;23.00;85.50;;;;;;5069116;28;20476;-55
2022/06/10 12:29:13;;;;;;;14.18;3.45;;;23.00;86.30;;;;;;5068918;28;20048;-53
2022/06/10 12:31:39;;;;;;;13.63;3.88;;;23.10;85.60;;;;;;5068931;28;20049;-54
2022/06/10 12:34:06;;;;;;;12.75;3.50;;;23.20;84.50;;;;;;5057803;28;20045;-53
2022/06/10 12:36:33;;;;;;;15.00;3.70;;;23.20;83.60;;;;;;5049677;28;20103;-50
2022/06/10 12:39:00;;;;;;;18.25;6.43;;;23.20;84.10;;;;;;5052294;28;20037;-52
2022/06/10 12:41:27;;;;;;;14.77;3.90;;;23.20;84.30;;;;;;5049883;28;20389;-57
2022/06/10 12:43:54;;;;;;;19.02;4.68;;;23.10;85.30;;;;;;5049580;28;20033;-54
2022/06/10 12:46:20;;;;;;;16.00;3.83;;;23.10;86.10;;;;;;5065516;28;20041;-51
2022/06/10 12:48:47;;;;;;;13.77;4.18;;;23.10;85.90;;;;;;5054921;28;20446;-53
2022/06/10 12:51:14;;;;;;;15.77;4.53;;;23.10;86.80;;;;;;5054106;28;20198;-52
2022/06/10 12:53:41;;;;;;;16.65;4.13;;;23.20;87.70;;;;;;5055085;28;20052;-52
2022/06/10 12:56:07;;;;;;;16.90;4.35;;;23.40;85.90;;;;;;5055299;28;20033;-54
2022/06/10 12:58:34;;;;;;;19.85;4.68;;;23.30;86.30;;;;;;5055120;28;20480;-54
2022/06/10 13:01:01;;;;;;;14.27;3.85;;;23.10;87.80;;;;;;5055231;28;20095;-58
2022/06/10 13:03:28;;;;;;;15.45;4.00;;;23.10;87.60;;;;;;5035853;28;20404;-50
2022/06/10 13:05:54;;;;;;;16.05;4.25;;;23.00;86.60;;;;;;5035883;28;20041;-55
2022/06/10 13:08:21;;;;;;;12.18;4.22;;;23.00;87.30;;;;;;5035946;28;20041;-52
2022/06/10 13:10:48;;;;;;;17.85;4.72;;;23.10;88.10;;;;;;5036049;28;20049;-51
2022/06/10 13:13:15;;;;;;;15.15;4.75;;;23.20;87.60;;;;;;5035767;28;20400;-56
2022/06/10 13:15:48;;;;;;;13.95;4.22;;;23.20;86.90;;;;;;5047963;28;20045;-57
2022/06/10 13:18:14;;;;;;;20.67;4.90;;;23.10;86.50;;;;;;5054755;28;20047;-51
2022/06/10 13:20:41;;;;;;;14.50;4.22;;;23.10;86.60;;;;;;5054850;28;20041;-50
2022/06/10 13:23:08;;;;;;;17.02;4.65;;;23.20;86.00;;;;;;5053416;28;20114;-54
2022/06/10 13:25:36;;;;;;;17.35;4.60;;;23.20;85.20;;;;;;5054677;28;20055;-58
2022/06/10 13:28:03;;;;;;;13.18;4.20;;;23.20;85.70;;;;;;5054609;28;20036;-56
2022/06/10 13:30:29;;;;;;;15.52;4.43;;;23.20;85.90;;;;;;5054694;28;20442;-57
2022/06/10 13:32:56;;;;;;;18.65;4.55;;;23.20;86.50;;;;;;5053137;28;20527;-54
2022/06/10 13:35:23;;;;;;;15.80;4.43;;;23.20;85.80;;;;;;5053009;28;20156;-54
2022/06/10 13:37:50;;;;;;;15.82;4.22;;;23.10;85.20;;;;;;5045756;28;20451;-55
2022/06/10 13:40:17;;;;;;;17.17;4.07;;;23.00;85.20;;;;;;5035539;28;20049;-54
2022/06/10 13:42:44;;;;;;;18.33;4.97;;;23.00;85.10;;;;;;5038167;28;20032;-53
2022/06/10 13:45:10;;;;;;;17.00;4.20;;;23.10;85.30;;;;;;5052783;28;20392;-52
2022/06/10 13:47:37;;;;;;;19.08;3.88;;;23.20;86.50;;;;;;5054368;28;20102;-54
2022/06/10 13:52:37;;;;;;;15.65;4.30;;;23.20;83.70;;;;;;5054450;28;20041;-55
2022/06/10 13:55:04;;;;;;;16.48;4.50;;;23.10;84.60;;;;;;5052885;28;20049;-55
2022/06/10 13:57:31;;;;;;;16.88;4.40;;;23.10;85.10;;;;;;5053915;28;20045;-56
2022/06/10 13:59:58;;;;;;;15.52;4.03;;;23.10;85.00;;;;;;5051754;28;20142;-55
2022/06/10 14:02:27;;;;;;;16.08;4.38;;;23.10;84.90;;;;;;5054149;28;20059;-55
2022/06/10 14:04:54;;;;;;;14.05;3.80;;;23.20;85.00;;;;;;5052784;28;20045;-54
2022/06/10 14:07:21;;;;;;;15.85;4.25;;;23.30;84.70;;;;;;5054074;28;20124;-56
2022/06/10 14:09:48;;;;;;;13.30;3.75;;;23.20;84.00;;;;;;5040270;28;20102;-57
2022/06/10 14:12:17;;;;;;;14.90;4.22;;;23.20;83.90;;;;;;5035171;28;20480;-55
2022/06/10 14:14:44;;;;;;;13.68;4.25;;;23.20;82.80;;;;;;5035089;28;20050;-55
2022/06/10 14:17:11;;;;;;;14.55;3.95;;;23.20;83.00;;;;;;5034804;28;20041;-51
2022/06/10 14:19:40;;;;;;;15.15;4.50;;;23.10;81.80;;;;;;5043605;28;20032;-52
2022/06/10 14:22:15;;;;;;;19.15;4.60;;;23.10;82.90;;;;;;5034383;28;20041;-53
2022/06/10 14:24:42;;;;;;;14.20;3.97;;;23.00;82.50;;;;;;5034218;28;20038;-49
2022/06/10 14:27:09;;;;;;;17.05;3.75;;;23.00;83.60;;;;;;5043788;28;20053;-51
2022/06/10 14:29:36;;;;;;;13.82;4.35;;;23.00;83.30;;;;;;5053307;28;20067;-52
2022/06/10 14:32:02;;;;;;;14.98;3.92;;;23.00;83.70;;;;;;5053200;28;20041;-50
2022/06/10 14:34:29;;;;;;;18.08;4.47;;;23.00;83.30;;;;;;5051888;28;20083;-52
2022/06/10 14:36:56;;;;;;;15.15;4.30;;;23.10;83.90;;;;;;5052048;28;20049;-47
2022/06/10 14:39:26;;;;;;;17.95;4.78;;;23.20;84.40;;;;;;5046477;28;20110;-53
2022/06/10 14:41:52;;;;;;;16.92;4.05;;;23.20;84.60;;;;;;5053051;28;20037;-52
2022/06/10 14:44:19;;;;;;;16.77;4.30;;;23.20;83.60;;;;;;5053027;28;20041;-50
2022/06/10 14:46:52;;;;;;;17.73;4.00;;;23.10;83.20;;;;;;5053190;28;20041;-50
2022/06/10 14:49:19;;;;;;;16.73;3.90;;;23.00;84.00;;;;;;5053079;28;20496;-54
2022/06/10 14:51:45;;;;;;;13.35;3.97;;;23.10;84.10;;;;;;5052921;28;20045;-50
2022/06/10 14:54:13;;;;;;;22.55;9.98;;;23.30;83.30;;;;;;5052855;28;20049;-52
2022/06/10 14:56:40;;;;;;;18.30;4.70;;;23.30;83.10;;;;;;5041790;28;20401;-50
2022/06/10 14:59:06;;;;;;;12.90;4.53;;;23.40;82.70;;;;;;5033848;28;20527;-53
2022/06/10 15:01:34;;;;;;;18.77;4.25;;;23.30;82.80;;;;;;5033749;28;20044;-55
2022/06/10 15:04:00;;;;;;;17.10;4.50;;;23.20;82.20;;;;;;5033768;28;20396;-51
2022/06/10 15:06:27;;;;;;;15.68;4.00;;;23.10;82.50;;;;;;5045197;28;20115;-51
2022/06/10 15:08:55;;;;;;;13.93;3.85;;;23.20;84.10;;;;;;5033633;28;20113;-56
2022/06/10 15:11:22;;;;;;;13.43;4.03;;;23.20;84.20;;;;;;5033344;28;20049;-54
2022/06/10 15:13:49;;;;;;;16.65;4.30;;;23.30;84.60;;;;;;5033365;28;20068;-53
2022/06/10 15:16:15;;;;;;;13.65;4.60;;;23.40;82.80;;;;;;5033420;28;20037;-54
2022/06/10 15:18:42;;;;;;;16.38;4.45;;;23.50;82.60;;;;;;5033415;28;20503;-58
2022/06/10 15:21:09;;;;;;;18.42;4.75;;;23.50;82.70;;;;;;5033308;28;20041;-57
2022/06/10 15:23:36;;;;;;;17.67;4.70;;;23.40;82.30;;;;;;5033319;28;20046;-53
2022/06/10 15:26:02;;;;;;;12.68;4.38;;;23.40;82.40;;;;;;5048043;28;20128;-51
2022/06/10 15:28:29;;;;;;;17.05;4.38;;;23.50;81.80;;;;;;5052467;28;20095;-55
2022/06/10 15:30:56;;;;;;;17.25;4.30;;;23.60;82.70;;;;;;5052496;28;20041;-53
2022/06/10 15:33:23;;;;;;;19.05;5.07;;;23.80;82.50;;;;;;5052399;28;20037;-53
2022/06/10 15:41:21;;;;;;;18.88;5.13;;;23.80;81.40;;;;;;5033505;28;20052;-56
2022/06/10 15:43:48;;;;;;;16.67;4.65;;;23.90;81.90;;;;;;5040967;28;20045;-57
2022/06/10 15:46:14;;;;;;;14.70;4.40;;;24.40;80.70;;;;;;5051105;28;20060;-53
2022/06/10 15:48:41;;;;;;;16.15;5.13;;;24.80;80.10;;;;;;5045165;28;20465;-54
2022/06/10 15:51:08;;;;;;;17.08;4.75;;;24.90;80.20;;;;;;5033582;28;20068;-55
2022/06/10 15:53:35;;;;;;;15.75;4.10;;;25.20;79.30;;;;;;5052085;28;20095;-55
2022/06/10 15:58:47;;;;;;;20.33;4.93;;;25.60;77.60;;;;;;5035957;28;20077;-54
2022/06/10 16:01:14;;;;;;;15.88;4.18;;;25.70;77.50;;;;;;5043006;28;20049;-55
2022/06/10 16:03:43;;;;;;;16.98;4.85;;;26.00;77.60;;;;;;5042461;28;20053;-57
2022/06/10 16:06:10;;;;;;;14.45;4.60;;;26.30;77.00;;;;;;5051430;28;20041;-55
2022/06/10 16:08:37;;;;;;;13.20;4.40;;;26.40;75.10;;;;;;5052357;28;20060;-52
2022/06/10 16:11:04;;;;;;;17.75;4.45;;;26.20;74.80;;;;;;5036557;28;20056;-59
2022/06/10 16:13:31;;;;;;;16.27;4.55;;;26.30;75.00;;;;;;5036140;28;20049;-54
2022/06/10 16:15:57;;;;;;;16.83;4.20;;;26.50;74.80;;;;;;5032784;28;20167;-56
2022/06/10 16:18:24;;;;;;;15.75;4.10;;;26.30;73.70;;;;;;5032716;28;20191;-55
2022/06/10 16:20:51;;;;;;;14.63;4.22;;;26.30;74.20;;;;;;5032504;28;20060;-54
2022/06/10 16:23:18;;;;;;;13.38;3.33;;;26.50;74.60;;;;;;5047988;28;20045;-59
2022/06/10 16:25:46;;;;;;;14.18;4.30;;;26.70;73.00;;;;;;5036035;28;20465;-57
2022/06/10 16:28:13;;;;;;;15.30;4.50;;;26.60;72.60;;;;;;5037186;28;20053;-55
2022/06/10 16:30:39;;;;;;;17.00;4.80;;;26.90;72.90;;;;;;5040238;28;20361;-53
2022/06/10 16:33:06;;;;;;;11.98;3.75;;;26.80;71.00;;;;;;5036131;28;20552;-55
2022/06/10 16:35:33;;;;;;;12.77;4.03;;;26.90;71.00;;;;;;5040811;28;20040;-57
2022/06/10 16:38:01;;;;;;;13.68;4.00;;;26.90;71.30;;;;;;5038700;28;20497;-57
2022/06/10 16:40:28;;;;;;;12.10;3.67;;;27.00;70.40;;;;;;5038157;28;20112;-58
2022/06/10 16:42:55;;;;;;;16.20;3.80;;;27.00;70.50;;;;;;5049463;28;20369;-56
2022/06/10 16:45:22;;;;;;;10.35;3.45;;;27.20;71.30;;;;;;5055023;28;20029;-55
2022/06/10 16:47:49;;;;;;;12.27;3.63;;;27.30;69.00;;;;;;5054856;28;20044;-57
2022/06/10 16:50:16;;;;;;;13.27;3.72;;;27.20;68.80;;;;;;5054948;28;20045;-53
2022/06/10 16:52:42;;;;;;;12.80;3.63;;;27.10;68.70;;;;;;5055054;28;20063;-52
2022/06/10 16:55:09;;;;;;;9.57;3.33;;;27.20;69.10;;;;;;5054962;28;20044;-51
2022/06/10 16:57:36;;;;;;;9.85;3.35;;;27.40;68.00;;;;;;5055026;28;20400;-56
2022/06/10 17:00:03;;;;;;;10.38;2.88;;;27.40;68.40;;;;;;5054949;28;20076;-56
2022/06/10 17:02:33;;;;;;;8.05;2.85;;;27.50;67.10;;;;;;5053688;28;20052;-53
2022/06/10 17:05:00;;;;;;;10.95;3.17;;;27.30;67.00;;;;;;5051987;28;20495;-55
2022/06/10 17:07:26;;;;;;;10.85;2.90;;;27.10;67.40;;;;;;5035432;28;20041;-56
2022/06/10 17:09:54;;;;;;;11.57;3.13;;;26.60;68.10;;;;;;5035499;28;20037;-55
2022/06/10 17:12:24;;;;;;;11.13;3.17;;;26.40;68.40;;;;;;5036340;28;20042;-56
2022/06/10 17:14:51;;;;;;;10.65;2.92;;;26.30;68.40;;;;;;5050921;28;20155;-52
2022/06/10 17:17:17;;;;;;;10.68;3.17;;;26.50;68.50;;;;;;5054617;28;20496;-54
2022/06/10 17:19:44;;;;;;;9.50;3.15;;;26.70;67.70;;;;;;5054470;28;20041;-52
2022/06/10 17:22:11;;;;;;;11.23;3.20;;;26.80;65.70;;;;;;5054322;28;20540;-55
2022/06/10 17:24:38;;;;;;;7.28;2.88;;;26.70;66.20;;;;;;5054635;28;20431;-53
2022/06/10 17:27:05;;;;;;;10.88;3.40;;;26.60;65.30;;;;;;5054435;28;20052;-54
2022/06/10 17:29:33;;;;;;;8.65;2.90;;;26.70;66.30;;;;;;5053091;28;20071;-56
2022/06/10 17:32:00;;;;;;;10.18;2.65;;;26.80;65.60;;;;;;5041683;28;20476;-55
2022/06/10 17:34:27;;;;;;;9.15;2.58;;;26.90;65.00;;;;;;5034972;28;20046;-58
2022/06/10 17:36:56;;;;;;;9.18;2.80;;;26.80;64.90;;;;;;5035337;28;20129;-56
2022/06/10 17:39:23;;;;;;;12.13;2.72;;;27.00;65.70;;;;;;5039587;28;20430;-55
2022/06/10 17:41:50;;;;;;;10.38;2.88;;;26.90;65.20;;;;;;5053142;28;20379;-55
2022/06/10 17:44:17;;;;;;;8.35;2.80;;;26.90;66.80;;;;;;5054393;28;20175;-54
2022/06/10 17:46:43;;;;;;;9.05;3.03;;;27.00;67.40;;;;;;5054476;28;20072;-56
2022/06/10 17:49:11;;;;;;;10.18;3.65;;;27.30;66.60;;;;;;5054433;28;20090;-51
2022/06/10 17:51:37;;;;;;;9.45;3.13;;;27.40;66.40;;;;;;5054431;28;20458;-54
2022/06/10 17:54:04;;;;;;;11.73;3.47;;;27.60;66.10;;;;;;5053313;28;20384;-52
2022/06/10 17:56:31;;;;;;;10.13;2.78;;;27.60;65.90;;;;;;5049804;28;20047;-54
2022/06/10 17:58:58;;;;;;;12.65;3.25;;;27.50;65.60;;;;;;5041476;28;20041;-53
2022/06/10 18:01:25;;;;;;;10.48;3.10;;;27.30;65.00;;;;;;5046276;28;20129;-57
2022/06/10 18:03:52;;;;;;;9.45;3.08;;;27.20;64.90;;;;;;5033825;28;20496;-57
2022/06/10 18:06:19;;;;;;;10.98;3.33;;;27.00;64.40;;;;;;5050811;28;20068;-55
2022/06/10 18:08:46;;;;;;;9.15;2.90;;;26.90;65.10;;;;;;5053571;28;20045;-53
2022/06/10 18:11:13;;;;;;;10.75;3.00;;;26.80;64.00;;;;;;5052418;28;20041;-48
2022/06/10 18:16:25;;;;;;;9.65;4.15;;;26.70;64.70;;;;;;5052492;28;20060;-52
2022/06/10 18:18:52;;;;;;;10.90;3.60;;;26.80;65.60;;;;;;5052348;28;20042;-53
2022/06/10 18:21:19;;;;;;;8.60;3.10;;;26.90;65.30;;;;;;5051315;28;20044;-54
2022/06/10 18:23:46;;;;;;;9.00;2.85;;;27.10;65.40;;;;;;5052542;28;20098;-54
2022/06/10 18:26:14;;;;;;;9.50;2.47;;;27.10;65.40;;;;;;5052436;28;20044;-56
2022/06/10 18:28:40;;;;;;;9.75;2.97;;;27.10;65.80;;;;;;5050263;28;20048;-59
2022/06/10 18:31:07;;;;;;;10.90;3.28;;;27.00;65.30;;;;;;5034199;28;20049;-58
2022/06/10 18:33:34;;;;;;;8.43;2.80;;;26.80;65.50;;;;;;5034182;28;20389;-52
2022/06/10 18:36:02;;;;;;;9.20;3.10;;;26.60;66.40;;;;;;5034295;28;20064;-54
2022/06/10 18:38:29;;;;;;;9.15;3.33;;;26.40;67.00;;;;;;5034368;28;20045;-52
2022/06/10 18:40:58;;;;;;;12.02;3.40;;;25.80;67.10;;;;;;5034169;28;20045;-54
2022/06/10 18:43:31;;;;;;;9.88;3.13;;;25.20;68.30;;;;;;5048930;28;20049;-56
2022/06/10 18:45:59;;;;;;;15.38;3.50;;;24.70;69.40;;;;;;5052746;28;20082;-58
2022/06/10 18:48:25;;;;;;;11.38;3.40;;;24.10;71.20;;;;;;5053081;28;20131;-57
2022/06/10 18:50:52;;;;;;;13.18;3.40;;;23.80;71.50;;;;;;5053211;28;20041;-51
2022/06/10 18:53:19;;;;;;;16.08;3.50;;;23.40;72.10;;;;;;5051542;28;20558;-53
2022/06/10 18:55:46;;;;;;;13.65;3.65;;;23.10;73.00;;;;;;5052999;28;20053;-54
2022/06/10 18:58:13;;;;;;;15.55;3.65;;;22.70;73.40;;;;;;5052851;28;20044;-58
2022/06/10 19:00:40;;;;;;;11.73;3.47;;;22.50;74.80;;;;;;5052843;28;20113;-51
2022/06/10 19:03:07;;;;;;;11.48;3.28;;;22.30;75.70;;;;;;5053152;28;20473;-50
2022/06/10 19:05:35;;;;;;;15.05;3.80;;;22.00;77.00;;;;;;5050126;28;20041;-50
2022/06/10 19:08:03;;;;;;;13.18;3.40;;;21.70;77.20;;;;;;5038276;28;20045;-59
2022/06/10 19:10:30;;;;;;;13.05;3.33;;;21.40;78.10;;;;;;5033547;28;20081;-56
2022/06/10 19:12:57;;;;;;;14.02;3.42;;;21.20;78.70;;;;;;5046154;28;20480;-53
2022/06/10 19:15:24;;;;;;;11.43;3.42;;;21.10;79.10;;;;;;5053721;28;20044;-55
2022/06/10 19:17:51;;;;;;;14.65;3.85;;;21.00;79.80;;;;;;5052150;28;20063;-53
2022/06/10 19:20:18;;;;;;;15.10;3.80;;;20.90;79.80;;;;;;5037373;28;20045;-55
2022/06/10 19:22:45;;;;;;;18.80;4.38;;;20.70;80.30;;;;;;5034324;28;20042;-54
2022/06/10 19:25:11;;;;;;;11.52;3.38;;;20.60;80.60;;;;;;5034320;28;20472;-56
2022/06/10 19:27:40;;;;;;;13.35;3.75;;;20.40;80.90;;;;;;5034149;28;20050;-48
2022/06/10 19:30:07;;;;;;;15.77;3.97;;;20.30;81.30;;;;;;5034046;28;20492;-56
2022/06/10 19:32:34;;;;;;;14.70;3.97;;;20.30;81.50;;;;;;5034234;28;20092;-57
2022/06/10 19:35:02;;;;;;;15.38;3.60;;;20.10;81.50;;;;;;5034227;28;20033;-58
2022/06/10 19:37:29;;;;;;;14.63;3.60;;;20.10;81.80;;;;;;5044361;28;20136;-54
2022/06/10 19:39:56;;;;;;;17.40;4.15;;;20.00;82.00;;;;;;5052275;28;20094;-58
2022/06/10 19:42:23;;;;;;;18.02;3.30;;;19.90;82.20;;;;;;5052462;28;20092;-55
2022/06/10 19:44:50;;;;;;;14.63;3.78;;;19.80;82.20;;;;;;5052209;28;20045;-55
2022/06/10 19:47:17;;;;;;;16.88;3.90;;;19.70;82.50;;;;;;5051495;28;20400;-50
2022/06/10 19:49:44;;;;;;;15.25;4.13;;;19.60;82.70;;;;;;5052792;28;20492;-54
2022/06/10 19:52:11;;;;;;;17.65;3.95;;;19.60;83.10;;;;;;5052489;28;20088;-55
2022/06/10 19:54:38;;;;;;;20.27;4.22;;;19.50;83.70;;;;;;5052361;28;20484;-53
2022/06/10 19:57:06;;;;;;;17.10;4.30;;;19.50;84.00;;;;;;5053047;28;20056;-52
2022/06/10 19:59:32;;;;;;;14.70;4.00;;;19.40;84.00;;;;;;5047400;28;20045;-59
2022/06/10 20:01:59;;;;;;;19.23;4.70;;;19.40;84.20;;;;;;5037478;28;20434;-54
2022/06/10 20:04:26;;;;;;;17.10;4.18;;;19.30;84.90;;;;;;5036979;28;20412;-55
2022/06/10 20:06:53;;;;;;;20.42;4.63;;;19.30;85.10;;;;;;5037151;28;20041;-53
2022/06/10 20:09:21;;;;;;;16.83;4.28;;;19.20;85.50;;;;;;5037152;28;20492;-54
2022/06/10 20:11:48;;;;;;;17.58;4.25;;;19.10;85.80;;;;;;5037092;28;20049;-55
2022/06/10 20:14:14;;;;;;;17.30;4.60;;;18.90;85.80;;;;;;5037022;28;20128;-54
2022/06/10 20:16:41;;;;;;;18.08;4.15;;;18.90;86.60;;;;;;5047023;28;20103;-53
2022/06/10 20:19:08;;;;;;;22.75;4.72;;;18.80;86.80;;;;;;5055962;28;20041;-55
2022/06/10 20:21:35;;;;;;;16.10;4.38;;;18.70;87.10;;;;;;5052601;28;20492;-55
2022/06/10 20:24:02;;;;;;;19.10;4.25;;;18.70;87.50;;;;;;5036776;28;20052;-51
2022/06/10 20:26:29;;;;;;;20.95;4.70;;;18.60;87.50;;;;;;5036563;28;20045;-54
2022/06/10 20:28:56;;;;;;;22.15;5.18;;;18.50;88.30;;;;;;5038657;28;20037;-53
2022/06/10 20:31:24;;;;;;;23.48;5.40;;;18.30;88.40;;;;;;5055988;28;20041;-52
2022/06/10 20:33:51;;;;;;;19.25;4.65;;;18.20;88.60;;;;;;5055650;28;20041;-54
2022/06/10 20:36:18;;;;;;;18.75;4.90;;;18.20;88.50;;;;;;5039426;28;20107;-58
2022/06/10 20:38:45;;;;;;;22.05;5.18;;;18.20;88.70;;;;;;5039436;28;20041;-56
2022/06/10 20:41:12;;;;;;;22.48;4.75;;;18.20;88.60;;;;;;5046978;28;20042;-55
2022/06/10 20:43:39;;;;;;;23.15;4.63;;;18.20;88.70;;;;;;5055640;28;20102;-52
2022/06/10 20:46:08;;;;;;;18.88;4.80;;;18.20;88.60;;;;;;5055530;28;20064;-54
2022/06/10 20:48:35;;;;;;;24.17;5.45;;;18.10;88.60;;;;;;5055508;28;20377;-54
2022/06/10 20:51:02;;;;;;;20.58;4.15;;;18.00;88.90;;;;;;5049255;28;20107;-56
2022/06/10 20:53:29;;;;;;;23.88;4.82;;;18.00;88.90;;;;;;5055431;28;20037;-55
2022/06/10 20:55:56;;;;;;;17.92;4.32;;;18.00;89.40;;;;;;5048962;28;20562;-57
2022/06/10 20:58:23;;;;;;;22.58;5.18;;;17.90;89.70;;;;;;5054147;28;20045;-54
2022/06/10 21:00:50;;;;;;;17.20;4.35;;;17.80;89.60;;;;;;5053923;28;20543;-52
2022/06/10 21:03:17;;;;;;;17.02;4.05;;;17.80;89.50;;;;;;5055102;28;20044;-56
2022/06/10 21:08:29;;;;;;;18.05;4.10;;;17.60;89.10;;;;;;5053039;28;20048;-58
2022/06/10 21:10:56;;;;;;;17.88;4.32;;;17.50;89.30;;;;;;5037886;28;20034;-55
2022/06/10 21:13:24;;;;;;;18.48;4.50;;;17.50;89.20;;;;;;5035868;28;20049;-53
2022/06/10 21:15:51;;;;;;;21.27;4.35;;;17.50;89.40;;;;;;5053024;28;20103;-57
2022/06/10 21:18:18;;;;;;;21.23;4.55;;;17.40;89.80;;;;;;5037625;28;20400;-58
2022/06/10 21:20:45;;;;;;;18.30;4.13;;;17.40;90.30;;;;;;5036001;28;20038;-55
2022/06/10 21:23:11;;;;;;;19.50;4.70;;;17.40;90.10;;;;;;5035593;28;20432;-55
2022/06/10 21:25:38;;;;;;;18.55;4.72;;;17.40;90.10;;;;;;5035610;28;20072;-57
2022/06/10 21:28:05;;;;;;;19.92;4.82;;;17.40;90.30;;;;;;5035608;28;20049;-59
2022/06/10 21:30:32;;;;;;;21.92;4.78;;;17.30;90.50;;;;;;5035670;28;20037;-54
2022/06/10 21:32:58;;;;;;;21.08;5.13;;;17.30;90.60;;;;;;5034085;28;20080;-59
2022/06/10 21:35:26;;;;;;;18.38;4.53;;;17.20;91.20;;;;;;5035466;28;20103;-54
2022/06/10 21:37:53;;;;;;;19.65;4.45;;;17.10;91.10;;;;;;5048249;28;20053;-55
2022/06/10 21:40:19;;;;;;;23.42;5.63;;;17.10;91.50;;;;;;5044565;28;20033;-55
2022/06/10 21:45:33;;;;;;;20.77;5.20;;;17.00;91.90;;;;;;5042356;28;20080;-53
2022/06/10 21:48:00;;;;;;;25.48;5.05;;;17.00;92.10;;;;;;5055593;28;20037;-56
2022/06/10 21:50:26;;;;;;;23.73;5.10;;;16.90;92.50;;;;;;5042571;28;20037;-53
2022/06/10 21:52:54;;;;;;;22.35;4.88;;;16.90;92.80;;;;;;5035528;28;20037;-56
2022/06/10 21:55:21;;;;;;;24.40;5.35;;;16.90;93.00;;;;;;5047792;28;20477;-55
2022/06/10 21:57:47;;;;;;;24.70;4.70;;;16.80;93.10;;;;;;5035308;28;20037;-49
2022/06/10 22:00:15;;;;;;;25.83;5.53;;;16.80;93.30;;;;;;5035068;28;20599;-55
2022/06/10 22:02:41;;;;;;;26.75;5.47;;;16.80;93.70;;;;;;5041207;28;20151;-61
2022/06/10 22:05:09;;;;;;;24.42;4.88;;;16.80;93.80;;;;;;5053897;28;20040;-56
2022/06/10 22:07:35;;;;;;;27.60;5.65;;;16.70;94.10;;;;;;5042403;28;20068;-56
2022/06/10 22:10:03;;;;;;;23.60;5.22;;;16.60;94.30;;;;;;5040672;28;20045;-54
2022/06/10 22:12:33;;;;;;;26.23;5.82;;;16.60;94.50;;;;;;5053991;28;20044;-58
2022/06/10 22:15:00;;;;;;;28.77;4.97;;;16.60;94.70;;;;;;5034584;28;20041;-55
2022/06/10 22:17:27;;;;;;;23.98;5.32;;;16.50;94.90;;;;;;5041075;28;20041;-55
2022/06/10 22:19:53;;;;;;;25.88;5.32;;;16.50;95.00;;;;;;5052826;28;20048;-56
2022/06/10 22:22:20;;;;;;;26.75;4.95;;;16.50;95.10;;;;;;5053756;28;20037;-58
2022/06/10 22:25:04;;;;;;;25.92;5.00;;;16.50;95.40;;;;;;5053885;28;20488;-55
2022/06/10 22:27:31;;;;;;;24.92;5.20;;;16.50;95.40;;;;;;5039279;28;20099;-54
2022/06/10 22:29:58;;;;;;;24.88;5.00;;;16.40;95.50;;;;;;5034464;28;20526;-59
2022/06/10 22:32:25;;;;;;;30.60;5.53;;;16.40;95.70;;;;;;5034347;28;20050;-55
2022/06/10 22:34:52;;;;;;;28.67;5.68;;;16.30;95.90;;;;;;5034279;28;20061;-53
2022/06/10 22:37:18;;;;;;;31.88;5.43;;;16.30;96.20;;;;;;5043131;28;20049;-54
2022/06/10 22:39:45;;;;;;;24.38;5.30;;;16.20;96.30;;;;;;5052172;28;20544;-56
2022/06/10 22:42:19;;;;;;;27.90;5.88;;;16.20;96.50;;;;;;5044815;28;20428;-56
2022/06/10 22:44:46;;;;;;;25.60;6.22;;;16.20;96.80;;;;;;5034057;28;20100;-56
2022/06/10 22:47:13;;;;;;;26.55;5.43;;;16.10;96.80;;;;;;5034068;28;20400;-52
2022/06/10 22:49:40;;;;;;;26.60;6.00;;;16.10;97.00;;;;;;5034118;28;20107;-51
2022/06/10 22:52:06;;;;;;;29.15;5.05;;;16.10;97.20;;;;;;5034252;28;20456;-57
2022/06/10 22:54:33;;;;;;;24.80;5.13;;;16.10;97.30;;;;;;5033917;28;20049;-54
2022/06/10 22:57:01;;;;;;;28.33;5.53;;;16.10;97.50;;;;;;5034019;28;20049;-56
2022/06/10 22:59:28;;;;;;;30.23;6.25;;;16.00;97.80;;;;;;5033964;28;20038;-59
2022/06/10 23:01:54;;;;;;;24.02;5.28;;;16.00;98.00;;;;;;5033750;28;20449;-52
2022/06/10 23:07:06;;;;;;;31.60;6.57;;;15.90;98.20;;;;;;5041448;28;20143;-59
2022/06/10 23:12:18;;;;;;;25.45;5.45;;;15.90;98.60;;;;;;5033513;28;20041;-56
2022/06/10 23:14:45;;;;;;;34.00;6.45;;;15.80;99.00;;;;;;5053125;28;20076;-53
2022/06/10 23:17:12;;;;;;;30.35;6.15;;;15.80;99.20;;;;;;5033379;28;20042;-55
2022/06/10 23:19:38;;;;;;;25.75;5.78;;;15.70;99.30;;;;;;5041517;28;20556;-56
2022/06/10 23:22:06;;;;;;;22.20;5.65;;;15.70;99.60;;;;;;5033273;28;20091;-57
2022/06/10 23:24:35;;;;;;;27.73;5.25;;;15.70;99.60;;;;;;5033033;28;20095;-47
2022/06/10 23:27:02;;;;;;;30.20;5.97;;;15.60;99.70;;;;;;5033435;28;20041;-57
2022/06/10 23:29:28;;;;;;;30.88;7.10;;;15.60;99.90;;;;;;5052537;28;20075;-57
2022/06/10 23:31:55;;;;;;;25.30;5.70;;;15.60;99.90;;;;;;5052858;28;20037;-54
2022/06/10 23:34:25;;;;;;;27.33;6.05;;;15.60;99.90;;;;;;5045874;28;20037;-56
2022/06/10 23:36:53;;;;;;;25.05;5.55;;;15.60;99.90;;;;;;5043778;28;20069;-53
2022/06/10 23:39:21;;;;;;;30.38;6.50;;;15.50;99.90;;;;;;5032154;28;20037;-57
2022/06/10 23:42:03;;;;;;;26.63;5.75;;;15.50;99.90;;;;;;5033045;28;20045;-57
2022/06/10 23:44:30;;;;;;;32.58;6.13;;;15.50;99.90;;;;;;5046762;28;20047;-52
2022/06/10 23:52:44;;;;;;;33.88;6.50;;;15.40;99.90;;;;;;5069983;28;20041;-51
2022/06/10 23:57:56;;;;;;;25.27;5.78;;;15.30;99.90;;;;;;5052030;28;20037;-50
